sensor_id;sensor_type;location;lat;lon;timestamp;P1;durP1;ratioP1;P2;durP2;ratioP2
10201;SDS011;5143;42.584;23.164;2024-03-02T00:01:47;34.10;;;22.83;;
10201;SDS011;5143;42.584;23.164;2024-03-02T00:04:13;33.77;;;23.20;;
10201;SDS011;5143;42.584;23.164;2024-03-02T00:06:41;36.57;;;23.63;;
10201;SDS011;5143;42.584;23.164;2024-03-02T00:09:08;38.33;;;23.83;;
10201;SDS011;5143;42.584;23.164;2024-03-02T00:11:36;38.53;;;24.67;;
10201;SDS011;5143;42.584;23.164;2024-03-02T00:14:03;42.67;;;23.60;;
10201;SDS011;5143;42.584;23.164;2024-03-02T00:16:29;39.30;;;24.40;;
10201;SDS011;5143;42.584;23.164;2024-03-02T00:18:56;36.07;;;22.60;;
10201;SDS011;5143;42.584;23.164;2024-03-02T00:21:24;35.47;;;23.13;;
10201;SDS011;5143;42.584;23.164;2024-03-02T00:23:55;33.30;;;20.77;;
10201;SDS011;5143;42.584;23.164;2024-03-02T00:26:21;35.60;;;21.50;;
10201;SDS011;5143;42.584;23.164;2024-03-02T00:28:48;41.00;;;25.97;;
10201;SDS011;5143;42.584;23.164;2024-03-02T00:31:15;36.43;;;23.70;;
10201;SDS011;5143;42.584;23.164;2024-03-02T00:33:44;38.13;;;23.20;;
10201;SDS011;5143;42.584;23.164;2024-03-02T00:36:11;33.60;;;21.40;;
10201;SDS011;5143;42.584;23.164;2024-03-02T00:38:45;35.67;;;23.23;;
10201;SDS011;5143;42.584;23.164;2024-03-02T00:41:17;35.53;;;22.97;;
10201;SDS011;5143;42.584;23.164;2024-03-02T00:43:45;51.27;;;28.97;;
10201;SDS011;5143;42.584;23.164;2024-03-02T00:46:15;48.30;;;28.53;;
10201;SDS011;5143;42.584;23.164;2024-03-02T00:48:48;46.37;;;28.30;;
10201;SDS011;5143;42.584;23.164;2024-03-02T00:51:14;46.33;;;27.13;;
10201;SDS011;5143;42.584;23.164;2024-03-02T00:53:41;38.93;;;24.77;;
10201;SDS011;5143;42.584;23.164;2024-03-02T00:56:08;40.40;;;25.20;;
10201;SDS011;5143;42.584;23.164;2024-03-02T00:58:36;41.33;;;25.13;;
10201;SDS011;5143;42.584;23.164;2024-03-02T01:01:03;39.53;;;25.40;;
10201;SDS011;5143;42.584;23.164;2024-03-02T01:03:29;41.17;;;25.43;;
10201;SDS011;5143;42.584;23.164;2024-03-02T01:05:56;41.43;;;26.70;;
10201;SDS011;5143;42.584;23.164;2024-03-02T01:08:23;36.30;;;25.97;;
10201;SDS011;5143;42.584;23.164;2024-03-02T01:10:50;39.60;;;25.40;;
10201;SDS011;5143;42.584;23.164;2024-03-02T01:13:17;41.93;;;25.33;;
10201;SDS011;5143;42.584;23.164;2024-03-02T01:15:44;37.53;;;25.67;;
10201;SDS011;5143;42.584;23.164;2024-03-02T01:18:11;41.83;;;27.87;;
10201;SDS011;5143;42.584;23.164;2024-03-02T01:20:38;44.67;;;26.23;;
10201;SDS011;5143;42.584;23.164;2024-03-02T01:23:04;38.50;;;24.60;;
10201;SDS011;5143;42.584;23.164;2024-03-02T01:25:31;37.10;;;23.90;;
10201;SDS011;5143;42.584;23.164;2024-03-02T01:27:57;40.77;;;23.20;;
10201;SDS011;5143;42.584;23.164;2024-03-02T01:30:23;31.00;;;22.90;;
10201;SDS011;5143;42.584;23.164;2024-03-02T01:32:51;37.73;;;24.77;;
10201;SDS011;5143;42.584;23.164;2024-03-02T01:35:18;38.97;;;24.77;;
10201;SDS011;5143;42.584;23.164;2024-03-02T01:37:44;39.03;;;24.80;;
10201;SDS011;5143;42.584;23.164;2024-03-02T01:40:11;38.80;;;25.83;;
10201;SDS011;5143;42.584;23.164;2024-03-02T01:42:38;35.27;;;24.07;;
10201;SDS011;5143;42.584;23.164;2024-03-02T01:45:05;35.10;;;22.90;;
10201;SDS011;5143;42.584;23.164;2024-03-02T01:47:32;38.00;;;23.40;;
10201;SDS011;5143;42.584;23.164;2024-03-02T01:50:00;37.50;;;24.57;;
10201;SDS011;5143;42.584;23.164;2024-03-02T01:52:27;34.67;;;24.63;;
10201;SDS011;5143;42.584;23.164;2024-03-02T01:54:53;36.57;;;22.90;;
10201;SDS011;5143;42.584;23.164;2024-03-02T01:57:20;37.80;;;24.80;;
10201;SDS011;5143;42.584;23.164;2024-03-02T01:59:46;40.13;;;25.47;;
10201;SDS011;5143;42.584;23.164;2024-03-02T02:02:13;35.57;;;23.73;;
10201;SDS011;5143;42.584;23.164;2024-03-02T02:04:40;38.23;;;24.03;;
10201;SDS011;5143;42.584;23.164;2024-03-02T02:07:07;35.27;;;22.80;;
10201;SDS011;5143;42.584;23.164;2024-03-02T02:09:34;36.00;;;23.30;;
10201;SDS011;5143;42.584;23.164;2024-03-02T02:12:01;36.57;;;24.53;;
10201;SDS011;5143;42.584;23.164;2024-03-02T02:14:28;38.57;;;24.60;;
10201;SDS011;5143;42.584;23.164;2024-03-02T02:16:54;37.57;;;24.37;;
10201;SDS011;5143;42.584;23.164;2024-03-02T02:19:21;37.43;;;24.10;;
10201;SDS011;5143;42.584;23.164;2024-03-02T02:21:49;37.57;;;24.47;;
10201;SDS011;5143;42.584;23.164;2024-03-02T02:24:15;40.60;;;25.67;;
10201;SDS011;5143;42.584;23.164;2024-03-02T02:26:42;39.07;;;24.80;;
10201;SDS011;5143;42.584;23.164;2024-03-02T02:29:08;37.50;;;24.20;;
10201;SDS011;5143;42.584;23.164;2024-03-02T02:31:38;35.70;;;23.80;;
10201;SDS011;5143;42.584;23.164;2024-03-02T02:34:05;34.87;;;24.07;;
10201;SDS011;5143;42.584;23.164;2024-03-02T02:36:31;34.53;;;23.63;;
10201;SDS011;5143;42.584;23.164;2024-03-02T02:38:59;33.37;;;23.00;;
10201;SDS011;5143;42.584;23.164;2024-03-02T02:41:28;36.10;;;24.00;;
10201;SDS011;5143;42.584;23.164;2024-03-02T02:43:54;37.27;;;22.80;;
10201;SDS011;5143;42.584;23.164;2024-03-02T02:46:21;35.83;;;23.27;;
10201;SDS011;5143;42.584;23.164;2024-03-02T02:48:47;33.17;;;22.80;;
10201;SDS011;5143;42.584;23.164;2024-03-02T02:51:14;34.37;;;23.30;;
10201;SDS011;5143;42.584;23.164;2024-03-02T02:53:41;40.10;;;23.27;;
10201;SDS011;5143;42.584;23.164;2024-03-02T02:56:09;33.57;;;24.03;;
10201;SDS011;5143;42.584;23.164;2024-03-02T02:58:36;37.37;;;24.27;;
10201;SDS011;5143;42.584;23.164;2024-03-02T03:01:02;34.30;;;23.83;;
10201;SDS011;5143;42.584;23.164;2024-03-02T03:03:29;37.63;;;22.93;;
10201;SDS011;5143;42.584;23.164;2024-03-02T03:05:55;36.43;;;23.57;;
10201;SDS011;5143;42.584;23.164;2024-03-02T03:08:21;34.20;;;23.07;;
10201;SDS011;5143;42.584;23.164;2024-03-02T03:10:49;34.03;;;22.27;;
10201;SDS011;5143;42.584;23.164;2024-03-02T03:13:17;36.33;;;23.00;;
10201;SDS011;5143;42.584;23.164;2024-03-02T03:15:43;35.67;;;22.17;;
10201;SDS011;5143;42.584;23.164;2024-03-02T03:18:10;36.23;;;22.23;;
10201;SDS011;5143;42.584;23.164;2024-03-02T03:20:36;33.83;;;23.10;;
10201;SDS011;5143;42.584;23.164;2024-03-02T03:23:03;33.17;;;21.60;;
10201;SDS011;5143;42.584;23.164;2024-03-02T03:25:30;36.43;;;23.97;;
10201;SDS011;5143;42.584;23.164;2024-03-02T03:27:56;36.33;;;23.70;;
10201;SDS011;5143;42.584;23.164;2024-03-02T03:30:24;31.50;;;21.80;;
10201;SDS011;5143;42.584;23.164;2024-03-02T03:32:50;30.97;;;21.47;;
10201;SDS011;5143;42.584;23.164;2024-03-02T03:35:17;30.93;;;20.63;;
10201;SDS011;5143;42.584;23.164;2024-03-02T03:37:44;37.53;;;23.53;;
10201;SDS011;5143;42.584;23.164;2024-03-02T03:40:10;36.40;;;23.23;;
10201;SDS011;5143;42.584;23.164;2024-03-02T03:42:39;35.10;;;23.17;;
10201;SDS011;5143;42.584;23.164;2024-03-02T03:45:05;36.27;;;23.30;;
10201;SDS011;5143;42.584;23.164;2024-03-02T03:47:34;32.00;;;21.47;;
10201;SDS011;5143;42.584;23.164;2024-03-02T03:50:01;36.33;;;23.17;;
10201;SDS011;5143;42.584;23.164;2024-03-02T03:52:32;31.50;;;22.37;;
10201;SDS011;5143;42.584;23.164;2024-03-02T03:54:58;38.43;;;23.50;;
10201;SDS011;5143;42.584;23.164;2024-03-02T03:57:25;32.67;;;23.87;;
10201;SDS011;5143;42.584;23.164;2024-03-02T03:59:51;33.10;;;24.10;;
10201;SDS011;5143;42.584;23.164;2024-03-02T04:02:17;33.87;;;23.57;;
10201;SDS011;5143;42.584;23.164;2024-03-02T04:04:45;32.20;;;22.33;;
10201;SDS011;5143;42.584;23.164;2024-03-02T04:07:12;37.57;;;24.17;;
10201;SDS011;5143;42.584;23.164;2024-03-02T04:09:38;37.27;;;24.63;;
10201;SDS011;5143;42.584;23.164;2024-03-02T04:12:05;40.33;;;24.67;;
10201;SDS011;5143;42.584;23.164;2024-03-02T04:14:31;44.90;;;26.40;;
10201;SDS011;5143;42.584;23.164;2024-03-02T04:16:58;43.17;;;26.50;;
10201;SDS011;5143;42.584;23.164;2024-03-02T04:19:24;46.00;;;26.03;;
10201;SDS011;5143;42.584;23.164;2024-03-02T04:21:52;44.17;;;27.33;;
10201;SDS011;5143;42.584;23.164;2024-03-02T04:24:18;39.30;;;25.73;;
10201;SDS011;5143;42.584;23.164;2024-03-02T04:26:45;39.37;;;26.37;;
10201;SDS011;5143;42.584;23.164;2024-03-02T04:29:11;40.73;;;25.07;;
10201;SDS011;5143;42.584;23.164;2024-03-02T04:31:38;44.93;;;26.50;;
10201;SDS011;5143;42.584;23.164;2024-03-02T04:34:04;43.30;;;26.73;;
10201;SDS011;5143;42.584;23.164;2024-03-02T04:36:31;45.27;;;28.53;;
10201;SDS011;5143;42.584;23.164;2024-03-02T04:38:58;38.53;;;26.00;;
10201;SDS011;5143;42.584;23.164;2024-03-02T04:41:25;55.20;;;32.47;;
10201;SDS011;5143;42.584;23.164;2024-03-02T04:43:51;51.07;;;29.60;;
10201;SDS011;5143;42.584;23.164;2024-03-02T04:46:18;54.33;;;31.37;;
10201;SDS011;5143;42.584;23.164;2024-03-02T04:48:44;48.13;;;30.80;;
10201;SDS011;5143;42.584;23.164;2024-03-02T04:51:11;48.60;;;30.70;;
10201;SDS011;5143;42.584;23.164;2024-03-02T04:53:38;52.27;;;30.67;;
10201;SDS011;5143;42.584;23.164;2024-03-02T04:56:06;53.40;;;31.40;;
10201;SDS011;5143;42.584;23.164;2024-03-02T04:58:50;53.73;;;31.80;;
10201;SDS011;5143;42.584;23.164;2024-03-02T05:01:16;52.43;;;31.30;;
10201;SDS011;5143;42.584;23.164;2024-03-02T05:03:43;53.13;;;32.60;;
10201;SDS011;5143;42.584;23.164;2024-03-02T05:06:10;54.70;;;32.17;;
10201;SDS011;5143;42.584;23.164;2024-03-02T05:08:36;51.83;;;31.43;;
10201;SDS011;5143;42.584;23.164;2024-03-02T05:11:03;45.50;;;28.83;;
10201;SDS011;5143;42.584;23.164;2024-03-02T05:13:44;44.77;;;27.77;;
10201;SDS011;5143;42.584;23.164;2024-03-02T05:16:11;48.83;;;29.07;;
10201;SDS011;5143;42.584;23.164;2024-03-02T05:18:38;46.40;;;27.57;;
10201;SDS011;5143;42.584;23.164;2024-03-02T05:21:04;47.80;;;27.80;;
10201;SDS011;5143;42.584;23.164;2024-03-02T05:23:31;48.27;;;28.47;;
10201;SDS011;5143;42.584;23.164;2024-03-02T05:25:58;42.60;;;26.57;;
10201;SDS011;5143;42.584;23.164;2024-03-02T05:28:24;40.60;;;26.50;;
10201;SDS011;5143;42.584;23.164;2024-03-02T05:30:52;44.33;;;25.87;;
10201;SDS011;5143;42.584;23.164;2024-03-02T05:33:19;42.30;;;25.90;;
10201;SDS011;5143;42.584;23.164;2024-03-02T05:35:47;40.20;;;25.07;;
10201;SDS011;5143;42.584;23.164;2024-03-02T05:38:14;39.23;;;24.10;;
10201;SDS011;5143;42.584;23.164;2024-03-02T05:40:41;39.17;;;23.23;;
10201;SDS011;5143;42.584;23.164;2024-03-02T05:43:07;45.03;;;25.37;;
10201;SDS011;5143;42.584;23.164;2024-03-02T05:45:34;39.27;;;24.17;;
10201;SDS011;5143;42.584;23.164;2024-03-02T05:48:02;36.63;;;23.93;;
10201;SDS011;5143;42.584;23.164;2024-03-02T05:50:28;41.27;;;25.20;;
10201;SDS011;5143;42.584;23.164;2024-03-02T05:52:55;37.57;;;23.13;;
10201;SDS011;5143;42.584;23.164;2024-03-02T05:55:22;36.03;;;22.03;;
10201;SDS011;5143;42.584;23.164;2024-03-02T05:57:48;37.00;;;23.20;;
10201;SDS011;5143;42.584;23.164;2024-03-02T06:00:27;36.10;;;23.83;;
10201;SDS011;5143;42.584;23.164;2024-03-02T06:02:55;32.73;;;22.37;;
10201;SDS011;5143;42.584;23.164;2024-03-02T06:05:24;37.27;;;23.23;;
10201;SDS011;5143;42.584;23.164;2024-03-02T06:07:50;35.33;;;23.20;;
10201;SDS011;5143;42.584;23.164;2024-03-02T06:10:17;32.37;;;22.43;;
10201;SDS011;5143;42.584;23.164;2024-03-02T06:12:44;35.80;;;23.17;;
10201;SDS011;5143;42.584;23.164;2024-03-02T06:15:10;35.90;;;21.57;;
10201;SDS011;5143;42.584;23.164;2024-03-02T06:17:37;28.10;;;19.23;;
10201;SDS011;5143;42.584;23.164;2024-03-02T06:20:04;29.40;;;19.50;;
10201;SDS011;5143;42.584;23.164;2024-03-02T06:22:34;30.40;;;19.23;;
10201;SDS011;5143;42.584;23.164;2024-03-02T06:25:01;28.40;;;19.43;;
10201;SDS011;5143;42.584;23.164;2024-03-02T06:27:27;31.47;;;19.30;;
10201;SDS011;5143;42.584;23.164;2024-03-02T06:29:53;28.50;;;20.03;;
10201;SDS011;5143;42.584;23.164;2024-03-02T06:32:20;28.53;;;18.27;;
10201;SDS011;5143;42.584;23.164;2024-03-02T06:34:48;26.13;;;18.50;;
10201;SDS011;5143;42.584;23.164;2024-03-02T06:37:14;27.67;;;19.10;;
10201;SDS011;5143;42.584;23.164;2024-03-02T06:39:43;35.60;;;19.40;;
10201;SDS011;5143;42.584;23.164;2024-03-02T06:42:09;23.13;;;17.47;;
10201;SDS011;5143;42.584;23.164;2024-03-02T06:44:36;22.50;;;17.40;;
10201;SDS011;5143;42.584;23.164;2024-03-02T06:47:02;23.40;;;16.43;;
10201;SDS011;5143;42.584;23.164;2024-03-02T06:49:29;22.77;;;14.20;;
10201;SDS011;5143;42.584;23.164;2024-03-02T06:51:55;21.37;;;15.30;;
10201;SDS011;5143;42.584;23.164;2024-03-02T06:54:22;22.83;;;15.70;;
10201;SDS011;5143;42.584;23.164;2024-03-02T06:56:50;22.17;;;14.80;;
10201;SDS011;5143;42.584;23.164;2024-03-02T06:59:16;21.43;;;14.80;;
10201;SDS011;5143;42.584;23.164;2024-03-02T07:01:42;20.10;;;15.10;;
10201;SDS011;5143;42.584;23.164;2024-03-02T07:04:09;21.97;;;15.63;;
10201;SDS011;5143;42.584;23.164;2024-03-02T07:06:35;23.83;;;15.23;;
10201;SDS011;5143;42.584;23.164;2024-03-02T07:09:02;19.67;;;14.23;;
10201;SDS011;5143;42.584;23.164;2024-03-02T07:11:28;17.47;;;13.27;;
10201;SDS011;5143;42.584;23.164;2024-03-02T07:13:56;21.30;;;14.20;;
10201;SDS011;5143;42.584;23.164;2024-03-02T07:16:22;19.63;;;14.97;;
10201;SDS011;5143;42.584;23.164;2024-03-02T07:18:53;18.67;;;14.23;;
10201;SDS011;5143;42.584;23.164;2024-03-02T07:21:20;20.63;;;14.47;;
10201;SDS011;5143;42.584;23.164;2024-03-02T07:23:47;18.57;;;13.67;;
10201;SDS011;5143;42.584;23.164;2024-03-02T07:26:12;20.27;;;12.93;;
10201;SDS011;5143;42.584;23.164;2024-03-02T07:28:40;19.40;;;13.77;;
10201;SDS011;5143;42.584;23.164;2024-03-02T07:31:08;17.33;;;12.97;;
10201;SDS011;5143;42.584;23.164;2024-03-02T07:33:35;18.87;;;14.63;;
10201;SDS011;5143;42.584;23.164;2024-03-02T07:36:01;18.17;;;13.47;;
10201;SDS011;5143;42.584;23.164;2024-03-02T07:38:28;15.33;;;11.57;;
10201;SDS011;5143;42.584;23.164;2024-03-02T07:40:54;15.37;;;11.20;;
10201;SDS011;5143;42.584;23.164;2024-03-02T07:43:21;17.57;;;12.43;;
10201;SDS011;5143;42.584;23.164;2024-03-02T07:45:48;16.80;;;11.50;;
10201;SDS011;5143;42.584;23.164;2024-03-02T07:48:16;16.13;;;11.83;;
10201;SDS011;5143;42.584;23.164;2024-03-02T07:50:42;14.13;;;11.43;;
10201;SDS011;5143;42.584;23.164;2024-03-02T07:53:09;15.43;;;11.63;;
10201;SDS011;5143;42.584;23.164;2024-03-02T07:55:36;16.87;;;11.70;;
10201;SDS011;5143;42.584;23.164;2024-03-02T07:58:03;13.10;;;10.57;;
10201;SDS011;5143;42.584;23.164;2024-03-02T08:00:29;15.07;;;11.07;;
10201;SDS011;5143;42.584;23.164;2024-03-02T08:02:56;14.10;;;10.90;;
10201;SDS011;5143;42.584;23.164;2024-03-02T08:05:24;13.27;;;10.17;;
10201;SDS011;5143;42.584;23.164;2024-03-02T08:07:50;15.57;;;10.90;;
10201;SDS011;5143;42.584;23.164;2024-03-02T08:10:17;14.37;;;11.43;;
10201;SDS011;5143;42.584;23.164;2024-03-02T08:12:44;13.23;;;10.83;;
10201;SDS011;5143;42.584;23.164;2024-03-02T08:15:10;13.83;;;10.70;;
10201;SDS011;5143;42.584;23.164;2024-03-02T08:17:38;13.37;;;10.50;;
10201;SDS011;5143;42.584;23.164;2024-03-02T08:20:06;14.73;;;11.63;;
10201;SDS011;5143;42.584;23.164;2024-03-02T08:22:34;13.70;;;11.17;;
10201;SDS011;5143;42.584;23.164;2024-03-02T08:25:01;16.23;;;12.77;;
10201;SDS011;5143;42.584;23.164;2024-03-02T08:27:27;15.20;;;11.47;;
10201;SDS011;5143;42.584;23.164;2024-03-02T08:29:54;12.93;;;10.33;;
10201;SDS011;5143;42.584;23.164;2024-03-02T08:32:20;14.77;;;11.17;;
10201;SDS011;5143;42.584;23.164;2024-03-02T08:34:47;16.57;;;11.40;;
10201;SDS011;5143;42.584;23.164;2024-03-02T08:37:14;13.60;;;10.57;;
10201;SDS011;5143;42.584;23.164;2024-03-02T08:39:42;13.50;;;10.90;;
10201;SDS011;5143;42.584;23.164;2024-03-02T08:42:09;15.63;;;10.40;;
10201;SDS011;5143;42.584;23.164;2024-03-02T08:44:36;12.47;;;9.90;;
10201;SDS011;5143;42.584;23.164;2024-03-02T08:47:02;12.27;;;9.17;;
10201;SDS011;5143;42.584;23.164;2024-03-02T08:49:29;11.87;;;9.33;;
10201;SDS011;5143;42.584;23.164;2024-03-02T08:51:55;12.17;;;9.60;;
10201;SDS011;5143;42.584;23.164;2024-03-02T08:54:21;11.03;;;9.53;;
10201;SDS011;5143;42.584;23.164;2024-03-02T08:56:49;11.07;;;8.93;;
10201;SDS011;5143;42.584;23.164;2024-03-02T08:59:16;13.33;;;8.30;;
10201;SDS011;5143;42.584;23.164;2024-03-02T09:01:42;11.10;;;8.40;;
10201;SDS011;5143;42.584;23.164;2024-03-02T09:04:10;9.00;;;7.60;;
10201;SDS011;5143;42.584;23.164;2024-03-02T09:06:36;8.20;;;7.40;;
10201;SDS011;5143;42.584;23.164;2024-03-02T09:09:03;8.20;;;6.87;;
10201;SDS011;5143;42.584;23.164;2024-03-02T09:11:29;7.97;;;6.27;;
10201;SDS011;5143;42.584;23.164;2024-03-02T09:13:58;7.00;;;6.30;;
10201;SDS011;5143;42.584;23.164;2024-03-02T09:16:25;8.50;;;6.77;;
10201;SDS011;5143;42.584;23.164;2024-03-02T09:18:56;7.43;;;6.50;;
10201;SDS011;5143;42.584;23.164;2024-03-02T09:21:22;8.90;;;7.27;;
10201;SDS011;5143;42.584;23.164;2024-03-02T09:23:50;7.93;;;6.83;;
10201;SDS011;5143;42.584;23.164;2024-03-02T09:26:17;9.53;;;7.20;;
10201;SDS011;5143;42.584;23.164;2024-03-02T09:28:44;8.47;;;6.53;;
10201;SDS011;5143;42.584;23.164;2024-03-02T09:31:12;9.63;;;7.00;;
10201;SDS011;5143;42.584;23.164;2024-03-02T09:33:39;9.23;;;7.53;;
10201;SDS011;5143;42.584;23.164;2024-03-02T09:36:05;13.13;;;8.20;;
10201;SDS011;5143;42.584;23.164;2024-03-02T09:38:32;9.10;;;6.83;;
10201;SDS011;5143;42.584;23.164;2024-03-02T09:40:59;7.80;;;6.50;;
10201;SDS011;5143;42.584;23.164;2024-03-02T09:43:25;8.30;;;6.70;;
10201;SDS011;5143;42.584;23.164;2024-03-02T09:45:52;9.33;;;7.27;;
10201;SDS011;5143;42.584;23.164;2024-03-02T09:48:19;9.20;;;6.60;;
10201;SDS011;5143;42.584;23.164;2024-03-02T09:50:46;9.50;;;7.20;;
10201;SDS011;5143;42.584;23.164;2024-03-02T09:53:12;10.27;;;7.90;;
10201;SDS011;5143;42.584;23.164;2024-03-02T09:55:40;10.40;;;8.57;;
10201;SDS011;5143;42.584;23.164;2024-03-02T09:58:09;11.33;;;8.37;;
10201;SDS011;5143;42.584;23.164;2024-03-02T10:00:35;11.43;;;8.70;;
10201;SDS011;5143;42.584;23.164;2024-03-02T10:03:02;10.47;;;7.90;;
10201;SDS011;5143;42.584;23.164;2024-03-02T10:05:31;12.27;;;7.73;;
10201;SDS011;5143;42.584;23.164;2024-03-02T10:08:00;12.47;;;9.30;;
10201;SDS011;5143;42.584;23.164;2024-03-02T10:10:35;12.40;;;9.90;;
10201;SDS011;5143;42.584;23.164;2024-03-02T10:13:05;13.53;;;10.50;;
10201;SDS011;5143;42.584;23.164;2024-03-02T10:15:31;15.17;;;11.53;;
10201;SDS011;5143;42.584;23.164;2024-03-02T10:17:58;15.23;;;9.67;;
10201;SDS011;5143;42.584;23.164;2024-03-02T10:20:25;14.13;;;10.33;;
10201;SDS011;5143;42.584;23.164;2024-03-02T10:22:55;13.77;;;9.17;;
10201;SDS011;5143;42.584;23.164;2024-03-02T10:25:28;11.17;;;8.07;;
10201;SDS011;5143;42.584;23.164;2024-03-02T10:27:56;10.83;;;8.17;;
10201;SDS011;5143;42.584;23.164;2024-03-02T10:30:23;10.40;;;7.90;;
10201;SDS011;5143;42.584;23.164;2024-03-02T10:32:49;12.37;;;9.00;;
10201;SDS011;5143;42.584;23.164;2024-03-02T10:35:16;12.27;;;9.03;;
10201;SDS011;5143;42.584;23.164;2024-03-02T10:37:42;13.20;;;10.17;;
10201;SDS011;5143;42.584;23.164;2024-03-02T10:40:11;14.80;;;9.50;;
10201;SDS011;5143;42.584;23.164;2024-03-02T10:42:38;14.37;;;9.93;;
10201;SDS011;5143;42.584;23.164;2024-03-02T10:45:06;15.63;;;10.53;;
10201;SDS011;5143;42.584;23.164;2024-03-02T10:47:32;15.33;;;10.97;;
10201;SDS011;5143;42.584;23.164;2024-03-02T10:49:59;23.03;;;9.43;;
10201;SDS011;5143;42.584;23.164;2024-03-02T10:52:28;25.40;;;10.93;;
10201;SDS011;5143;42.584;23.164;2024-03-02T10:54:54;21.27;;;9.17;;
10201;SDS011;5143;42.584;23.164;2024-03-02T10:57:22;19.90;;;10.27;;
10201;SDS011;5143;42.584;23.164;2024-03-02T10:59:52;27.70;;;9.80;;
10201;SDS011;5143;42.584;23.164;2024-03-02T11:02:18;29.73;;;10.70;;
10201;SDS011;5143;42.584;23.164;2024-03-02T11:04:47;22.43;;;10.67;;
10201;SDS011;5143;42.584;23.164;2024-03-02T11:07:15;18.90;;;11.53;;
10201;SDS011;5143;42.584;23.164;2024-03-02T11:09:45;27.23;;;12.17;;
10201;SDS011;5143;42.584;23.164;2024-03-02T11:12:16;21.30;;;11.63;;
10201;SDS011;5143;42.584;23.164;2024-03-02T11:14:46;23.83;;;11.57;;
10201;SDS011;5143;42.584;23.164;2024-03-02T11:17:14;29.70;;;12.00;;
10201;SDS011;5143;42.584;23.164;2024-03-02T11:19:41;21.17;;;11.57;;
10201;SDS011;5143;42.584;23.164;2024-03-02T11:22:08;30.33;;;11.73;;
10201;SDS011;5143;42.584;23.164;2024-03-02T11:24:35;30.97;;;17.50;;
10201;SDS011;5143;42.584;23.164;2024-03-02T11:27:02;19.50;;;10.27;;
10201;SDS011;5143;42.584;23.164;2024-03-02T11:29:45;21.20;;;10.80;;
10201;SDS011;5143;42.584;23.164;2024-03-02T11:32:16;22.57;;;12.93;;
10201;SDS011;5143;42.584;23.164;2024-03-02T11:34:44;22.60;;;12.73;;
10201;SDS011;5143;42.584;23.164;2024-03-02T11:37:12;20.23;;;11.90;;
10201;SDS011;5143;42.584;23.164;2024-03-02T11:39:39;21.50;;;9.00;;
10201;SDS011;5143;42.584;23.164;2024-03-02T11:42:05;22.30;;;13.93;;
10201;SDS011;5143;42.584;23.164;2024-03-02T11:44:33;19.07;;;12.40;;
10201;SDS011;5143;42.584;23.164;2024-03-02T11:47:00;16.40;;;10.13;;
10201;SDS011;5143;42.584;23.164;2024-03-02T11:49:37;21.70;;;12.33;;
10201;SDS011;5143;42.584;23.164;2024-03-02T11:52:04;24.03;;;11.87;;
10201;SDS011;5143;42.584;23.164;2024-03-02T11:54:31;19.73;;;12.00;;
10201;SDS011;5143;42.584;23.164;2024-03-02T11:56:59;20.33;;;13.50;;
10201;SDS011;5143;42.584;23.164;2024-03-02T11:59:26;23.23;;;11.63;;
10201;SDS011;5143;42.584;23.164;2024-03-02T12:01:53;18.33;;;9.73;;
10201;SDS011;5143;42.584;23.164;2024-03-02T12:04:19;16.03;;;10.63;;
10201;SDS011;5143;42.584;23.164;2024-03-02T12:06:48;22.57;;;16.83;;
10201;SDS011;5143;42.584;23.164;2024-03-02T12:09:20;24.50;;;12.67;;
10201;SDS011;5143;42.584;23.164;2024-03-02T12:11:46;18.53;;;12.37;;
10201;SDS011;5143;42.584;23.164;2024-03-02T12:14:13;18.67;;;11.83;;
10201;SDS011;5143;42.584;23.164;2024-03-02T12:16:43;13.50;;;9.93;;
10201;SDS011;5143;42.584;23.164;2024-03-02T12:19:09;15.03;;;10.00;;
10201;SDS011;5143;42.584;23.164;2024-03-02T12:21:36;20.33;;;13.87;;
10201;SDS011;5143;42.584;23.164;2024-03-02T12:24:04;12.37;;;9.90;;
10201;SDS011;5143;42.584;23.164;2024-03-02T12:26:29;15.17;;;10.73;;
10201;SDS011;5143;42.584;23.164;2024-03-02T12:28:56;18.00;;;10.30;;
10201;SDS011;5143;42.584;23.164;2024-03-02T12:31:23;14.20;;;10.97;;
10201;SDS011;5143;42.584;23.164;2024-03-02T12:33:50;13.43;;;10.33;;
10201;SDS011;5143;42.584;23.164;2024-03-02T12:36:16;14.87;;;9.93;;
10201;SDS011;5143;42.584;23.164;2024-03-02T12:38:43;14.43;;;10.80;;
10201;SDS011;5143;42.584;23.164;2024-03-02T12:41:15;17.23;;;10.83;;
10201;SDS011;5143;42.584;23.164;2024-03-02T12:43:42;15.40;;;10.63;;
10201;SDS011;5143;42.584;23.164;2024-03-02T12:46:08;17.90;;;12.23;;
10201;SDS011;5143;42.584;23.164;2024-03-02T12:48:35;13.17;;;10.03;;
10201;SDS011;5143;42.584;23.164;2024-03-02T12:51:01;11.93;;;9.60;;
10201;SDS011;5143;42.584;23.164;2024-03-02T12:53:28;14.13;;;8.93;;
10201;SDS011;5143;42.584;23.164;2024-03-02T12:55:54;13.37;;;9.83;;
10201;SDS011;5143;42.584;23.164;2024-03-02T12:58:23;14.33;;;9.17;;
10201;SDS011;5143;42.584;23.164;2024-03-02T13:00:55;14.53;;;9.60;;
10201;SDS011;5143;42.584;23.164;2024-03-02T13:03:31;12.53;;;8.90;;
10201;SDS011;5143;42.584;23.164;2024-03-02T13:05:57;14.30;;;9.50;;
10201;SDS011;5143;42.584;23.164;2024-03-02T13:08:24;14.10;;;9.13;;
10201;SDS011;5143;42.584;23.164;2024-03-02T13:10:50;13.17;;;7.83;;
10201;SDS011;5143;42.584;23.164;2024-03-02T13:13:17;11.70;;;7.17;;
10201;SDS011;5143;42.584;23.164;2024-03-02T13:15:45;11.63;;;6.93;;
10201;SDS011;5143;42.584;23.164;2024-03-02T13:18:11;11.03;;;5.73;;
10201;SDS011;5143;42.584;23.164;2024-03-02T13:20:38;7.30;;;6.13;;
10201;SDS011;5143;42.584;23.164;2024-03-02T13:23:05;8.27;;;5.83;;
10201;SDS011;5143;42.584;23.164;2024-03-02T13:25:31;8.80;;;5.87;;
10201;SDS011;5143;42.584;23.164;2024-03-02T13:27:59;6.87;;;5.17;;
10201;SDS011;5143;42.584;23.164;2024-03-02T13:30:25;5.87;;;4.93;;
10201;SDS011;5143;42.584;23.164;2024-03-02T13:32:54;7.73;;;5.20;;
10201;SDS011;5143;42.584;23.164;2024-03-02T13:35:20;7.50;;;5.60;;
10201;SDS011;5143;42.584;23.164;2024-03-02T13:37:47;8.67;;;6.37;;
10201;SDS011;5143;42.584;23.164;2024-03-02T13:40:14;9.03;;;5.17;;
10201;SDS011;5143;42.584;23.164;2024-03-02T13:42:45;5.97;;;5.00;;
10201;SDS011;5143;42.584;23.164;2024-03-02T13:45:11;8.47;;;6.10;;
10201;SDS011;5143;42.584;23.164;2024-03-02T13:47:38;7.60;;;6.27;;
10201;SDS011;5143;42.584;23.164;2024-03-02T13:50:06;7.63;;;6.80;;
10201;SDS011;5143;42.584;23.164;2024-03-02T13:52:32;11.87;;;6.53;;
10201;SDS011;5143;42.584;23.164;2024-03-02T13:54:59;12.23;;;6.90;;
10201;SDS011;5143;42.584;23.164;2024-03-02T13:57:25;8.63;;;7.07;;
10201;SDS011;5143;42.584;23.164;2024-03-02T13:59:52;9.37;;;6.73;;
10201;SDS011;5143;42.584;23.164;2024-03-02T14:02:19;11.47;;;7.50;;
10201;SDS011;5143;42.584;23.164;2024-03-02T14:04:46;11.30;;;8.77;;
10201;SDS011;5143;42.584;23.164;2024-03-02T14:07:16;15.20;;;10.23;;
10201;SDS011;5143;42.584;23.164;2024-03-02T14:09:42;12.53;;;9.83;;
10201;SDS011;5143;42.584;23.164;2024-03-02T14:12:10;12.90;;;10.23;;
10201;SDS011;5143;42.584;23.164;2024-03-02T14:14:38;16.03;;;11.03;;
10201;SDS011;5143;42.584;23.164;2024-03-02T14:17:04;19.00;;;12.37;;
10201;SDS011;5143;42.584;23.164;2024-03-02T14:19:31;16.23;;;10.67;;
10201;SDS011;5143;42.584;23.164;2024-03-02T14:21:58;14.40;;;11.20;;
10201;SDS011;5143;42.584;23.164;2024-03-02T14:24:26;11.03;;;8.03;;
10201;SDS011;5143;42.584;23.164;2024-03-02T14:26:54;9.27;;;6.83;;